Aérodrome :
LOGIN :

S'inscrire | Disclaimer

   EN    FR    IT 

 










Légende :    VFR   VFR Marginal   IFR   IFR Intensif   IFR Très Intensif
Visi : 
Plafond : 
>= 8 km
>= 3000ft
5 à 8 km
1000 à 3000 ft
1500m à 5 km
500 à 1000 ft
800 à 1500m
200 à 500 ft
< 800m
< 200 ft
Symboles :   Orages  Brouillard  Fortes neiges  Fortes précipitations  Vent > 20 kt
SIGMETs :   Divers  Orages  Givrage  Turbulence  Onde Orograph.  Cendres Volcan.






- Altitude de l'aérodrome : 1306 ft
- Code IATA : ACH


LSZR - Alten Rhein

DERNIER METAR :
  • 172050Z AUTO 25006KT 180V300 9999 FEW100 08/03 Q1025

METARs EXPIRÉS :
  • 172020Z AUTO 25009KT 210V300 9999 BKN085 BKN095 09/03 Q1024
  • 171950Z 28004KT 240V320 9999 -RA BKN050 09/03 Q1024 NOSIG RMK Q
  • 171920Z 28004KT 240V320 9999 -RA BKN050 08/04 Q1024 NOSIG RMK Q
  • 171850Z VRB03KT 9999 -DZ FEW040 BKN080 09/04 Q1023 NOSIG RMK O
  • 171820Z VRB03KT 9999 -DZ FEW040 BKN080 09/05 Q1023 NOSIG RMK O

TAF TAF LSZR
Valide du 17 à 15h jusqu'au 18 à 00h UTC


171425Z 1715/1724 27010G25KT 9999 SCT030 BKN045
TEMPO 1715/1724 RA
ATIS : +41 71 858 51 66



MET'MAP, la Météo Aéronautique d'un coup d'oeil ! - Copyright ORBIFLY Décembre 2007 - Disclaimer

ORBIFLY MET'MAP TEAM :

Programmation & Développement : Alexandra Zaïnal
Sur une idée originale de : Baudouin d'Aumeries
Assistance à la programmation : Marc-Olivier Méhu
Soutien technique & logistique : Manuel Goepfert

Contact : metmap@orbifly.com




SOURCES & CREDITS :

   NOAA